Time;durP1;ratioP1;P1;durP2;ratioP2;P2;SDS_P1;SDS_P2;PMS_P1;PMS_P2;Temp;Humidity;BMP_temperature;BMP_pressure;BME280_temperature;BME280_humidity;BME280_pressure;Samples;Min_cycle;Max_cycle;Signal;HPM_P1;HPM_P2
2022/02/26 00:03:40;;;;;;;10.43;1.83;;;2.10;99.90;;;;;;10348511;28;20053;-62
2022/02/26 00:08:42;;;;;;;5.35;1.52;;;2.10;99.90;;;;;;10343022;28;20512;-62
2022/02/26 00:13:43;;;;;;;9.38;2.55;;;2.00;99.90;;;;;;10345565;28;20054;-62
2022/02/26 00:18:45;;;;;;;7.30;2.08;;;1.90;99.90;;;;;;10344449;28;20049;-62
2022/02/26 00:23:46;;;;;;;8.52;1.98;;;1.80;99.90;;;;;;10347229;28;20103;-62
2022/02/26 00:28:48;;;;;;;11.10;3.28;;;1.70;99.90;;;;;;10332475;28;20057;-62
2022/02/26 00:33:50;;;;;;;10.50;3.80;;;1.70;99.90;;;;;;10341598;28;20069;-62
2022/02/26 00:38:53;;;;;;;7.85;3.25;;;1.60;99.90;;;;;;10344719;28;20477;-62
2022/02/26 00:43:56;;;;;;;8.55;2.65;;;1.50;99.90;;;;;;10347498;28;20083;-62
2022/02/26 00:54:17;;;;;;;5.78;1.88;;;1.30;99.90;;;;;;10337771;28;20077;-62
2022/02/26 00:59:19;;;;;;;12.77;2.70;;;1.10;99.90;;;;;;10336210;28;20066;-62
2022/02/26 01:04:21;;;;;;;11.13;2.10;;;1.20;99.90;;;;;;10343057;28;20112;-63
2022/02/26 01:09:22;;;;;;;5.85;2.58;;;1.10;99.90;;;;;;10348140;28;20189;-62
2022/02/26 01:14:25;;;;;;;16.20;2.50;;;1.00;99.90;;;;;;10338900;28;20080;-62
2022/02/26 01:19:27;;;;;;;17.48;2.97;;;1.00;99.90;;;;;;10344836;28;20065;-62
2022/02/26 01:24:31;;;;;;;6.93;2.47;;;1.00;99.90;;;;;;10335750;28;20062;-63
2022/02/26 01:29:35;;;;;;;10.88;3.05;;;1.00;99.90;;;;;;10333313;28;20483;-63
2022/02/26 01:34:37;;;;;;;8.95;2.38;;;1.00;99.90;;;;;;10331854;28;20058;-62
2022/02/26 01:39:39;;;;;;;4.88;2.33;;;1.00;99.90;;;;;;10342558;28;20050;-62
2022/02/26 01:44:48;;;;;;;8.75;2.38;;;1.10;99.90;;;;;;10337024;28;20101;-62
2022/02/26 01:49:50;;;;;;;7.70;1.70;;;1.10;99.90;;;;;;10332497;28;20125;-62
2022/02/26 01:54:52;;;;;;;11.30;2.50;;;1.00;99.90;;;;;;10337211;28;20073;-62
2022/02/26 01:59:53;;;;;;;7.70;1.90;;;0.90;99.90;;;;;;10339765;28;20591;-62
2022/02/26 02:04:55;;;;;;;7.95;3.15;;;0.90;99.90;;;;;;10346890;28;20065;-62
2022/02/26 02:09:57;;;;;;;11.70;2.85;;;1.00;99.90;;;;;;10338876;28;20042;-61
2022/02/26 02:15:00;;;;;;;9.98;2.20;;;1.00;99.90;;;;;;10344652;28;20052;-62
2022/02/26 02:20:02;;;;;;;8.48;2.75;;;0.90;99.90;;;;;;10341636;28;20587;-61
2022/02/26 02:25:07;;;;;;;13.80;2.53;;;0.90;99.90;;;;;;10340089;28;20056;-61
2022/02/26 02:30:10;;;;;;;11.18;2.85;;;0.90;99.90;;;;;;10343430;28;20473;-63
2022/02/26 02:35:27;;;;;;;9.88;2.35;;;0.90;99.90;;;;;;10336602;28;20042;-62
2022/02/26 02:40:29;;;;;;;8.17;2.47;;;0.90;99.90;;;;;;10332647;28;20725;-62
2022/02/26 02:45:32;;;;;;;7.30;2.53;;;0.80;99.90;;;;;;10336131;28;20073;-62
2022/02/26 02:50:34;;;;;;;11.90;2.83;;;0.90;99.90;;;;;;10337306;28;20075;-61
2022/02/26 02:55:36;;;;;;;8.32;2.28;;;0.80;99.90;;;;;;10338853;28;20037;-61
2022/02/26 03:00:38;;;;;;;10.63;7.90;;;0.90;99.90;;;;;;10268691;28;20259;-61
2022/02/26 03:05:39;;;;;;;6.60;2.83;;;1.00;99.90;;;;;;10189985;28;20038;-60
2022/02/26 03:10:41;;;;;;;9.60;2.40;;;1.10;99.90;;;;;;10339468;28;20136;-60
2022/02/26 03:15:43;;;;;;;8.10;2.58;;;1.20;99.90;;;;;;10336847;28;20046;-60
2022/02/26 03:20:44;;;;;;;6.70;1.98;;;1.30;99.90;;;;;;10345150;28;20053;-60
2022/02/26 03:25:46;;;;;;;6.55;2.13;;;1.40;99.90;;;;;;10341915;28;20057;-60
2022/02/26 03:30:49;;;;;;;13.52;2.58;;;1.50;99.90;;;;;;10333630;28;20100;-61
2022/02/26 03:35:50;;;;;;;9.77;1.35;;;1.60;99.90;;;;;;10338203;28;20038;-61
2022/02/26 03:40:52;;;;;;;8.60;1.90;;;1.80;99.90;;;;;;10344568;28;20107;-61
2022/02/26 03:45:55;;;;;;;9.90;1.75;;;1.90;99.90;;;;;;10351310;28;20482;-60
2022/02/26 03:51:04;;;;;;;10.55;1.35;;;1.90;99.90;;;;;;10345493;28;20057;-61
2022/02/26 03:56:05;;;;;;;8.02;1.33;;;1.80;99.90;;;;;;10346843;28;20092;-60
2022/02/26 04:01:07;;;;;;;5.30;1.25;;;1.80;99.90;;;;;;10346303;28;20128;-61
2022/02/26 04:06:09;;;;;;;5.72;1.45;;;1.70;99.90;;;;;;10343658;28;20145;-61
2022/02/26 04:11:11;;;;;;;6.97;1.25;;;1.60;99.90;;;;;;10343921;28;20049;-61
2022/02/26 04:16:12;;;;;;;4.40;1.23;;;1.50;99.90;;;;;;10355704;28;20053;-61
2022/02/26 04:21:14;;;;;;;10.52;1.35;;;1.40;99.90;;;;;;10343227;28;20485;-60
2022/02/26 04:26:16;;;;;;;7.47;2.42;;;1.40;99.90;;;;;;10350580;28;20050;-60
2022/02/26 04:31:18;;;;;;;8.35;0.93;;;1.30;99.90;;;;;;10341089;28;20120;-61
2022/02/26 04:36:20;;;;;;;6.18;1.02;;;1.30;99.90;;;;;;10344942;28;20049;-61
2022/02/26 04:41:22;;;;;;;8.85;1.00;;;1.20;99.90;;;;;;10345342;28;20041;-60
2022/02/26 04:46:24;;;;;;;6.18;1.38;;;1.20;99.90;;;;;;10351432;28;20058;-60
2022/02/26 04:51:25;;;;;;;5.70;1.50;;;1.20;99.90;;;;;;10344006;28;20049;-61
2022/02/26 04:56:27;;;;;;;6.10;0.70;;;1.10;99.90;;;;;;10345170;28;20123;-60
2022/02/26 05:01:29;;;;;;;4.75;1.08;;;1.00;99.90;;;;;;10345095;28;20128;-60
2022/02/26 05:06:31;;;;;;;6.47;0.63;;;1.00;99.90;;;;;;10338744;28;20052;-60
2022/02/26 05:11:35;;;;;;;6.28;1.08;;;0.90;99.90;;;;;;10341386;28;20061;-61
2022/02/26 05:16:36;;;;;;;15.55;1.23;;;0.80;99.90;;;;;;10340581;28;20069;-61
2022/02/26 05:21:38;;;;;;;15.40;1.73;;;0.60;99.90;;;;;;10346778;28;20397;-61
2022/02/26 05:26:40;;;;;;;9.13;1.20;;;0.60;99.90;;;;;;10341243;28;20065;-60
2022/02/26 05:31:41;;;;;;;4.97;0.90;;;0.50;99.90;;;;;;10342040;28;20132;-61
2022/02/26 05:36:43;;;;;;;6.97;1.63;;;0.50;99.90;;;;;;10347403;28;20070;-61
2022/02/26 05:41:45;;;;;;;8.63;1.48;;;0.40;99.90;;;;;;10342036;28;20382;-61
2022/02/26 05:46:47;;;;;;;6.93;1.77;;;0.40;99.90;;;;;;10339139;28;20233;-60
2022/02/26 05:51:48;;;;;;;8.20;1.48;;;0.40;99.90;;;;;;10343082;28;20058;-61
2022/02/26 05:56:50;;;;;;;11.10;1.48;;;0.30;99.90;;;;;;10346517;28;20497;-61
2022/02/26 06:01:56;;;;;;;10.57;1.30;;;0.30;99.90;;;;;;10335359;28;20377;-62
2022/02/26 06:06:58;;;;;;;8.70;0.80;;;0.20;99.90;;;;;;10348074;28;20045;-60
2022/02/26 06:11:59;;;;;;;15.63;1.90;;;0.20;99.90;;;;;;10337000;28;20131;-61
2022/02/26 06:17:01;;;;;;;7.25;1.10;;;0.10;99.90;;;;;;10343185;28;20378;-64
2022/02/26 06:22:03;;;;;;;7.93;1.30;;;0.10;99.90;;;;;;10341480;28;20140;-64
2022/02/26 06:27:05;;;;;;;8.45;1.92;;;0.00;99.90;;;;;;10345909;28;20097;-64
2022/02/26 06:32:07;;;;;;;4.03;1.23;;;-0.10;99.90;;;;;;10340137;28;20077;-64
2022/02/26 06:37:09;;;;;;;13.80;2.40;;;-0.10;99.90;;;;;;10343221;28;21039;-64
2022/02/26 06:42:10;;;;;;;6.05;1.35;;;-0.20;99.90;;;;;;10337619;28;20123;-64
2022/02/26 06:47:12;;;;;;;10.75;1.52;;;-0.20;99.90;;;;;;10340315;28;20540;-64
2022/02/26 06:52:14;;;;;;;13.07;1.67;;;-0.20;99.90;;;;;;10344267;28;20185;-64
2022/02/26 06:57:15;;;;;;;5.55;1.45;;;-0.20;99.90;;;;;;10334933;28;20073;-64
2022/02/26 07:02:17;;;;;;;8.85;1.75;;;-0.20;99.90;;;;;;10338544;28;20078;-64
2022/02/26 07:07:19;;;;;;;11.90;1.70;;;-0.20;99.90;;;;;;10340521;28;20431;-64
2022/02/26 07:12:21;;;;;;;8.10;1.55;;;-0.10;99.90;;;;;;10340129;28;20120;-64
2022/02/26 07:17:22;;;;;;;6.88;1.85;;;0.00;99.90;;;;;;10351923;28;20492;-65
2022/02/26 07:22:24;;;;;;;12.07;1.65;;;0.00;99.90;;;;;;10348711;28;20148;-65
2022/02/26 07:27:26;;;;;;;14.15;2.17;;;0.10;99.90;;;;;;10350993;28;20444;-65
2022/02/26 07:32:27;;;;;;;15.25;2.33;;;0.20;99.90;;;;;;10352332;28;20076;-64
2022/02/26 07:37:30;;;;;;;7.88;2.17;;;0.30;99.90;;;;;;10354810;28;20065;-65
2022/02/26 07:42:32;;;;;;;10.75;1.52;;;0.50;99.90;;;;;;10354244;28;20057;-65
2022/02/26 07:47:33;;;;;;;13.00;2.80;;;0.60;99.90;;;;;;10346290;28;20069;-65
2022/02/26 07:52:35;;;;;;;13.13;1.75;;;0.80;99.90;;;;;;10344708;28;20081;-65
2022/02/26 07:57:37;;;;;;;10.50;2.35;;;0.90;99.90;;;;;;10345625;28;20066;-65
2022/02/26 08:02:39;;;;;;;10.80;2.40;;;1.10;99.90;;;;;;10348053;28;20154;-65
2022/02/26 08:07:41;;;;;;;21.42;3.03;;;1.30;99.90;;;;;;10349818;28;20058;-65
2022/02/26 08:12:43;;;;;;;8.45;2.05;;;1.40;99.90;;;;;;10341961;28;20081;-65
2022/02/26 08:17:46;;;;;;;15.57;2.58;;;1.60;99.90;;;;;;10340730;28;20119;-65
2022/02/26 08:22:47;;;;;;;10.27;2.15;;;1.70;99.90;;;;;;10347318;28;20598;-65
2022/02/26 08:27:49;;;;;;;9.82;2.40;;;1.90;99.90;;;;;;10339372;28;20378;-65
2022/02/26 08:32:52;;;;;;;14.85;2.78;;;2.00;99.90;;;;;;10348745;28;20064;-65
2022/02/26 08:37:54;;;;;;;9.88;2.05;;;2.20;99.90;;;;;;10341100;28;20687;-65
2022/02/26 08:42:56;;;;;;;11.60;1.48;;;2.40;99.90;;;;;;10342995;28;20081;-65
2022/02/26 08:47:58;;;;;;;4.20;1.10;;;2.50;99.90;;;;;;10341264;28;20132;-65
2022/02/26 08:52:59;;;;;;;7.40;1.75;;;2.60;99.90;;;;;;10338558;28;20042;-65
2022/02/26 08:58:01;;;;;;;12.30;1.92;;;2.80;99.90;;;;;;10347877;28;20135;-65
2022/02/26 09:03:04;;;;;;;13.70;2.25;;;2.90;99.90;;;;;;10338375;28;20046;-65
2022/02/26 09:08:06;;;;;;;13.50;2.10;;;3.10;99.90;;;;;;10339710;28;20053;-65
2022/02/26 09:13:09;;;;;;;13.30;2.00;;;3.20;99.90;;;;;;10339043;28;20061;-66
2022/02/26 09:18:10;;;;;;;14.23;2.47;;;3.30;99.90;;;;;;10347298;28;20378;-65
2022/02/26 09:23:12;;;;;;;10.13;1.70;;;3.50;99.90;;;;;;10341041;28;20594;-65
2022/02/26 09:28:14;;;;;;;8.68;1.35;;;3.60;99.90;;;;;;10341647;28;20081;-66
2022/02/26 09:33:16;;;;;;;13.10;1.95;;;3.70;99.90;;;;;;10343518;28;20065;-66
2022/02/26 09:38:18;;;;;;;12.95;1.48;;;3.90;99.90;;;;;;10337716;28;20053;-66
2022/02/26 09:43:21;;;;;;;9.27;1.00;;;4.20;99.90;;;;;;10339495;28;20313;-65
2022/02/26 09:48:25;;;;;;;9.32;0.82;;;4.50;99.80;;;;;;10343274;28;20073;-65
2022/02/26 09:53:27;;;;;;;7.88;1.70;;;5.10;99.70;;;;;;10337512;28;20123;-66
2022/02/26 09:58:28;;;;;;;6.57;1.15;;;5.50;97.60;;;;;;10348847;28;20135;-66
2022/02/26 10:03:36;;;;;;;8.05;1.13;;;6.10;95.20;;;;;;10339403;28;20086;-66
2022/02/26 10:09:01;;;;;;;7.07;1.15;;;6.50;92.90;;;;;;10348078;28;20405;-66
2022/02/26 10:14:10;;;;;;;8.82;1.52;;;6.70;90.50;;;;;;10345527;28;20050;-66
2022/02/26 10:19:19;;;;;;;3.55;0.77;;;7.00;88.60;;;;;;10335649;28;20049;-66
2022/02/26 10:24:21;;;;;;;17.27;1.88;;;7.40;85.60;;;;;;10333015;28;20171;-66
2022/02/26 10:29:24;;;;;;;8.88;1.08;;;7.50;85.90;;;;;;10337225;28;20050;-66
2022/02/26 10:34:34;;;;;;;11.35;1.75;;;7.70;84.30;;;;;;10343560;28;20481;-66
2022/02/26 10:39:41;;;;;;;10.85;2.38;;;7.90;81.20;;;;;;10346279;28;20077;-66
2022/02/26 10:44:43;;;;;;;5.03;0.80;;;7.90;81.40;;;;;;10340879;28;20116;-66
2022/02/26 10:49:47;;;;;;;9.80;0.95;;;7.80;80.40;;;;;;10345556;28;20049;-66
2022/02/26 10:54:55;;;;;;;6.95;0.90;;;7.70;80.20;;;;;;10337720;28;20042;-66
2022/02/26 10:59:57;;;;;;;6.82;0.85;;;7.70;80.20;;;;;;10340686;28;20068;-65
2022/02/26 11:04:58;;;;;;;7.90;1.00;;;7.70;77.60;;;;;;10342914;28;20050;-65
2022/02/26 11:10:00;;;;;;;11.23;1.13;;;7.70;79.50;;;;;;10331651;28;20512;-65
2022/02/26 11:15:03;;;;;;;8.95;0.75;;;7.80;81.00;;;;;;10341162;28;20053;-65
2022/02/26 11:20:06;;;;;;;8.23;0.85;;;7.90;75.50;;;;;;10334273;28;20054;-65
2022/02/26 11:25:08;;;;;;;9.07;0.80;;;7.80;75.90;;;;;;10336524;28;20156;-65
2022/02/26 11:30:16;;;;;;;17.27;1.05;;;7.70;74.80;;;;;;10339875;28;20046;-65
2022/02/26 11:35:24;;;;;;;6.18;0.70;;;7.70;75.20;;;;;;10341705;28;20054;-64
2022/02/26 11:40:26;;;;;;;3.13;0.60;;;7.40;76.50;;;;;;10341393;28;24565;-64
2022/02/26 11:45:30;;;;;;;5.43;0.77;;;7.30;76.30;;;;;;10328564;28;20085;-64
2022/02/26 11:50:37;;;;;;;8.70;1.23;;;7.30;76.10;;;;;;10344063;28;20057;-65
2022/02/26 11:55:47;;;;;;;13.32;1.27;;;7.60;75.60;;;;;;10336937;28;20126;-65
2022/02/26 12:00:58;;;;;;;4.72;0.70;;;7.80;74.20;;;;;;10348895;28;20396;-65
2022/02/26 12:06:09;;;;;;;7.97;0.93;;;7.60;73.90;;;;;;10341640;28;20058;-65
2022/02/26 12:11:21;;;;;;;6.97;0.60;;;7.60;73.30;;;;;;10343731;28;20438;-64
2022/02/26 12:16:24;;;;;;;8.13;0.60;;;7.40;74.50;;;;;;10345390;28;20383;-64
2022/02/26 12:21:43;;;;;;;4.55;0.50;;;7.40;73.50;;;;;;10346032;28;20090;-64
2022/02/26 12:26:58;;;;;;;9.35;0.57;;;7.40;73.70;;;;;;10344391;28;20084;-65
2022/02/26 12:32:04;;;;;;;6.22;0.50;;;7.60;73.80;;;;;;10349383;28;20048;-66
2022/02/26 12:37:13;;;;;;;5.85;0.40;;;7.60;71.00;;;;;;10344209;28;20141;-65
2022/02/26 12:42:35;;;;;;;6.68;0.30;;;7.60;71.20;;;;;;10348340;28;20037;-66
2022/02/26 12:47:40;;;;;;;3.03;0.28;;;7.60;71.00;;;;;;10337343;28;20043;-66
2022/02/26 12:52:43;;;;;;;10.45;1.70;;;7.40;71.30;;;;;;10345848;28;20579;-65
2022/02/26 12:57:47;;;;;;;4.97;0.30;;;7.60;70.90;;;;;;10348108;28;20050;-65
2022/02/26 13:03:03;;;;;;;5.10;0.70;;;7.50;71.80;;;;;;10344602;28;20069;-65
2022/02/26 13:08:08;;;;;;;3.60;0.50;;;7.50;70.90;;;;;;10343269;28;20049;-65
2022/02/26 13:13:11;;;;;;;12.95;0.55;;;7.70;71.70;;;;;;10341625;28;20070;-65
2022/02/26 13:18:14;;;;;;;8.70;1.25;;;7.80;71.30;;;;;;10347453;28;20050;-65
2022/02/26 13:23:20;;;;;;;2.13;0.60;;;8.10;71.10;;;;;;10344222;28;20045;-65
2022/02/26 13:28:24;;;;;;;4.72;0.50;;;9.30;70.50;;;;;;10324084;28;20474;-66
2022/02/26 13:33:27;;;;;;;4.30;0.40;;;10.50;66.90;;;;;;10351383;28;20557;-67
2022/02/26 13:38:29;;;;;;;3.28;0.50;;;12.20;66.00;;;;;;10338252;28;20440;-67
2022/02/26 13:43:30;;;;;;;5.82;0.35;;;13.20;64.80;;;;;;10338271;28;20366;-67
2022/02/26 13:48:42;;;;;;;7.60;0.40;;;13.30;62.20;;;;;;10347512;28;20172;-66
2022/02/26 13:53:43;;;;;;;4.57;0.60;;;14.10;52.50;;;;;;10309564;28;20042;-66
2022/02/26 13:58:52;;;;;;;7.60;0.50;;;14.90;50.00;;;;;;10338595;28;20049;-67
2022/02/26 14:03:55;;;;;;;4.70;0.40;;;15.30;47.50;;;;;;10342006;28;20053;-66
2022/02/26 14:08:58;;;;;;;4.43;0.52;;;16.00;47.20;;;;;;10340957;28;20057;-66
2022/02/26 14:14:21;;;;;;;6.70;0.68;;;15.80;46.40;;;;;;10337965;28;20432;-66
2022/02/26 14:19:27;;;;;;;6.65;0.73;;;15.60;47.50;;;;;;10347095;28;20041;-66
2022/02/26 14:24:29;;;;;;;3.67;0.50;;;15.10;47.60;;;;;;10346359;28;20081;-65
2022/02/26 14:29:35;;;;;;;2.00;0.40;;;14.70;48.70;;;;;;10340036;28;20547;-66
2022/02/26 14:34:38;;;;;;;2.80;0.55;;;14.10;49.70;;;;;;10341976;28;20092;-66
2022/02/26 14:39:40;;;;;;;6.80;0.50;;;14.30;50.20;;;;;;10338627;28;20073;-65
2022/02/26 14:44:42;;;;;;;4.75;0.40;;;14.10;49.20;;;;;;10339712;28;20054;-66
2022/02/26 14:49:44;;;;;;;4.38;0.38;;;13.80;51.20;;;;;;10337834;28;20042;-65
2022/02/26 14:54:46;;;;;;;4.22;0.43;;;13.00;52.80;;;;;;10336652;28;20420;-65
2022/02/26 14:59:49;;;;;;;6.22;0.75;;;12.60;56.40;;;;;;10337647;28;20041;-65
2022/02/26 15:04:51;;;;;;;4.72;0.40;;;12.40;53.70;;;;;;10343737;28;20163;-64
2022/02/26 15:09:54;;;;;;;4.68;0.45;;;11.90;54.80;;;;;;10346774;28;20124;-66
2022/02/26 15:14:56;;;;;;;6.32;0.50;;;11.60;55.90;;;;;;10345731;28;20057;-66
2022/02/26 15:19:58;;;;;;;3.25;0.60;;;11.60;57.00;;;;;;10341573;28;20151;-66
2022/02/26 15:25:01;;;;;;;4.18;0.40;;;11.50;55.50;;;;;;10331703;28;20046;-66
2022/02/26 15:30:04;;;;;;;5.03;0.73;;;11.50;56.80;;;;;;10347699;28;20111;-65
2022/02/26 15:35:06;;;;;;;4.55;0.30;;;11.40;57.00;;;;;;10343653;28;20049;-65
2022/02/26 15:40:09;;;;;;;6.30;0.35;;;10.80;60.50;;;;;;10345966;28;20090;-64
2022/02/26 15:45:10;;;;;;;3.50;0.50;;;10.50;58.40;;;;;;10349410;28;20042;-65
2022/02/26 15:50:12;;;;;;;6.97;0.80;;;10.70;57.00;;;;;;10349467;28;20073;-65
2022/02/26 15:55:14;;;;;;;5.22;0.28;;;10.10;58.40;;;;;;10352615;28;20559;-64
2022/02/26 16:00:16;;;;;;;8.05;0.32;;;10.00;62.40;;;;;;10349501;28;20062;-65
2022/02/26 16:05:19;;;;;;;2.55;0.40;;;9.80;62.50;;;;;;10343309;28;20066;-65
2022/02/26 16:10:20;;;;;;;4.13;0.90;;;9.40;61.10;;;;;;10357455;28;20062;-65
2022/02/26 16:15:22;;;;;;;6.38;0.50;;;9.20;62.60;;;;;;10349359;28;20054;-65
2022/02/26 16:20:27;;;;;;;4.90;0.57;;;8.90;64.70;;;;;;10348535;28;20053;-66
2022/02/26 16:25:29;;;;;;;2.85;0.50;;;8.70;64.90;;;;;;10351977;28;20443;-65
2022/02/26 16:30:31;;;;;;;4.13;0.40;;;8.50;66.40;;;;;;10352237;28;20128;-66
2022/02/26 16:35:34;;;;;;;10.40;0.75;;;8.20;66.90;;;;;;10342528;28;20423;-66
2022/02/26 16:40:36;;;;;;;6.28;0.30;;;8.00;68.70;;;;;;10346030;28;20042;-65
2022/02/26 16:45:37;;;;;;;6.60;0.40;;;7.70;68.40;;;;;;10353438;28;20409;-66
2022/02/26 16:50:45;;;;;;;7.38;0.47;;;7.50;70.50;;;;;;10340414;28;20049;-65
2022/02/26 16:55:46;;;;;;;3.35;0.68;;;7.30;71.20;;;;;;10331071;28;20069;-65
2022/02/26 17:00:49;;;;;;;4.63;0.47;;;7.00;71.40;;;;;;10341926;28;20057;-68
2022/02/26 17:05:51;;;;;;;6.25;0.50;;;6.80;72.80;;;;;;10334146;28;20070;-65
2022/02/26 17:10:53;;;;;;;6.15;0.63;;;6.60;73.60;;;;;;10344835;28;20052;-64
2022/02/26 17:15:55;;;;;;;3.00;0.85;;;6.40;74.60;;;;;;10345531;28;20049;-65
2022/02/26 17:20:57;;;;;;;5.60;0.82;;;6.20;76.20;;;;;;10344407;28;20049;-66
2022/02/26 17:25:59;;;;;;;15.95;1.75;;;6.00;77.90;;;;;;10340630;28;20052;-62
2022/02/26 17:31:01;;;;;;;18.55;4.65;;;5.80;80.00;;;;;;10343721;28;20109;-62
2022/02/26 17:36:03;;;;;;;23.08;6.45;;;5.60;81.20;;;;;;10341232;28;20065;-62
2022/02/26 17:41:05;;;;;;;22.17;6.85;;;5.40;83.20;;;;;;10348134;28;20054;-62
2022/02/26 17:46:07;;;;;;;21.55;7.65;;;5.30;85.60;;;;;;10337912;28;20688;-62
2022/02/26 17:51:10;;;;;;;23.33;6.82;;;5.10;87.20;;;;;;10339798;28;20493;-62
2022/02/26 17:56:11;;;;;;;15.93;6.40;;;5.00;88.00;;;;;;10346027;28;20077;-63
2022/02/26 18:01:13;;;;;;;12.23;5.25;;;4.90;92.70;;;;;;10339701;28;20139;-61
2022/02/26 18:06:15;;;;;;;16.73;4.30;;;4.80;92.80;;;;;;10349941;28;20582;-62
2022/02/26 18:11:17;;;;;;;15.20;5.90;;;4.70;93.70;;;;;;10341054;28;20078;-62
2022/02/26 18:16:19;;;;;;;32.88;9.82;;;4.60;95.20;;;;;;10341922;28;20053;-62
2022/02/26 18:21:22;;;;;;;20.30;6.07;;;4.40;94.90;;;;;;10333674;28;20046;-62
2022/02/26 18:26:25;;;;;;;12.02;3.25;;;4.30;94.70;;;;;;10343434;28;20053;-61
2022/02/26 18:31:29;;;;;;;9.20;2.00;;;4.20;94.70;;;;;;10345994;28;20053;-61
2022/02/26 18:36:32;;;;;;;9.15;1.73;;;4.20;95.20;;;;;;10338917;28;20069;-60
2022/02/26 18:41:40;;;;;;;5.13;2.38;;;4.10;95.90;;;;;;10338893;28;20129;-62
2022/02/26 18:46:42;;;;;;;10.65;2.13;;;4.00;96.90;;;;;;10345645;28;20150;-62
2022/02/26 18:51:43;;;;;;;9.85;1.95;;;3.80;98.00;;;;;;10341820;28;20331;-62
2022/02/26 18:56:45;;;;;;;14.40;3.42;;;3.70;99.40;;;;;;10344635;28;20103;-61
2022/02/26 19:01:47;;;;;;;15.85;9.68;;;3.60;99.90;;;;;;10112984;28;20064;-63
2022/02/26 19:06:51;;;;;;;11.93;7.93;;;3.40;99.90;;;;;;9580805;28;20132;-63
2022/02/26 19:11:53;;;;;;;3.53;2.25;;;3.40;99.90;;;;;;9944458;28;20505;-63
2022/02/26 19:16:54;;;;;;;12.00;2.83;;;3.40;99.90;;;;;;10345223;28;20394;-61
2022/02/26 19:21:56;;;;;;;10.05;3.63;;;3.40;99.90;;;;;;10346070;28;20044;-62
2022/02/26 19:26:58;;;;;;;11.43;5.00;;;3.40;99.90;;;;;;10349661;28;20081;-62
2022/02/26 19:32:02;;;;;;;15.45;5.30;;;3.40;99.90;;;;;;10346470;28;20054;-62
2022/02/26 19:37:06;;;;;;;9.90;3.80;;;3.40;99.90;;;;;;10351913;28;20061;-63
2022/02/26 19:42:08;;;;;;;11.25;3.60;;;3.40;99.90;;;;;;10307726;28;20050;-62
2022/02/26 19:47:10;;;;;;;15.93;4.53;;;3.30;99.90;;;;;;10351292;28;20061;-63
2022/02/26 19:52:12;;;;;;;11.60;3.90;;;3.30;99.90;;;;;;10351343;28;20046;-61
2022/02/26 19:57:19;;;;;;;15.48;4.30;;;3.30;99.90;;;;;;10346363;28;20054;-63
2022/02/26 20:02:21;;;;;;;8.60;3.70;;;3.30;99.90;;;;;;10338795;28;20098;-62
2022/02/26 20:07:23;;;;;;;9.07;3.25;;;3.40;99.90;;;;;;10340629;28;20058;-61
2022/02/26 20:12:25;;;;;;;8.27;3.75;;;3.30;99.90;;;;;;10341504;28;20085;-62
2022/02/26 20:17:26;;;;;;;17.60;5.55;;;3.30;99.90;;;;;;10348777;28;20103;-63
2022/02/26 20:22:28;;;;;;;8.77;3.55;;;3.30;99.90;;;;;;10349707;28;20401;-61
2022/02/26 20:27:36;;;;;;;9.50;3.35;;;3.30;99.90;;;;;;10343469;28;20050;-62
2022/02/26 20:32:37;;;;;;;13.93;4.38;;;3.30;99.90;;;;;;10354718;28;20858;-62
2022/02/26 20:37:39;;;;;;;8.10;2.60;;;3.30;99.90;;;;;;10349758;28;20057;-61
2022/02/26 20:42:41;;;;;;;6.68;2.17;;;3.20;99.90;;;;;;10337870;28;20050;-62
2022/02/26 20:47:46;;;;;;;6.13;2.00;;;3.20;99.90;;;;;;10347847;28;20597;-62
2022/02/26 20:52:48;;;;;;;5.35;2.33;;;3.20;99.90;;;;;;10346512;28;20502;-62
2022/02/26 20:57:50;;;;;;;11.68;4.22;;;3.10;99.90;;;;;;10343659;28;20080;-62
2022/02/26 21:02:51;;;;;;;8.65;2.72;;;3.10;99.90;;;;;;10339874;28;20057;-61
2022/02/26 21:07:53;;;;;;;10.52;3.50;;;3.00;99.90;;;;;;10353381;28;20054;-62
2022/02/26 21:12:55;;;;;;;7.82;2.90;;;3.00;99.90;;;;;;10343160;28;20178;-61
2022/02/26 21:17:57;;;;;;;9.48;3.40;;;2.90;99.90;;;;;;10348093;28;20049;-63
2022/02/26 21:22:58;;;;;;;13.82;4.32;;;2.80;99.90;;;;;;10347200;28;20115;-62
2022/02/26 21:28:01;;;;;;;16.73;6.60;;;2.80;99.90;;;;;;10338446;28;20104;-62
2022/02/26 21:33:03;;;;;;;16.45;6.00;;;2.70;99.90;;;;;;10345923;28;20748;-62
2022/02/26 21:38:05;;;;;;;28.08;9.48;;;2.60;99.90;;;;;;10341207;28;20140;-63
2022/02/26 21:43:07;;;;;;;17.52;6.32;;;2.50;99.90;;;;;;10348573;28;20504;-61
2022/02/26 21:48:09;;;;;;;14.30;5.65;;;2.40;99.90;;;;;;10345739;28;20404;-61
2022/02/26 21:53:12;;;;;;;10.18;3.10;;;2.30;99.90;;;;;;10349066;28;20053;-62
2022/02/26 21:58:14;;;;;;;13.45;4.60;;;2.20;99.90;;;;;;10335218;28;20044;-62
2022/02/26 22:03:16;;;;;;;15.98;4.10;;;2.10;99.90;;;;;;10344684;28;20054;-62
2022/02/26 22:08:18;;;;;;;12.50;3.40;;;2.10;99.90;;;;;;10339752;28;20046;-62
2022/02/26 22:13:20;;;;;;;11.55;3.05;;;2.20;99.90;;;;;;10341396;28;20068;-61
2022/02/26 22:18:22;;;;;;;8.95;3.45;;;2.20;99.90;;;;;;10341528;28;20108;-61
2022/02/26 22:23:24;;;;;;;17.35;4.43;;;2.30;99.90;;;;;;10347259;28;20049;-60
2022/02/26 22:28:26;;;;;;;16.80;4.50;;;2.30;99.90;;;;;;10351823;28;20549;-62
2022/02/26 22:33:27;;;;;;;13.57;3.75;;;2.30;99.90;;;;;;10338090;28;20579;-61
2022/02/26 22:38:29;;;;;;;7.95;3.28;;;2.40;99.90;;;;;;10343462;28;20049;-61
2022/02/26 22:43:31;;;;;;;8.52;2.70;;;2.40;99.90;;;;;;10334238;28;20054;-61
2022/02/26 22:48:33;;;;;;;14.75;4.40;;;2.50;99.90;;;;;;10348954;28;20053;-61
2022/02/26 22:53:35;;;;;;;10.45;2.92;;;2.50;99.90;;;;;;10340672;28;20057;-61
2022/02/26 22:58:38;;;;;;;7.22;2.25;;;2.50;99.90;;;;;;10345126;28;20050;-61
2022/02/26 23:03:43;;;;;;;10.25;1.58;;;2.50;99.90;;;;;;10346026;28;20134;-62
2022/02/26 23:08:45;;;;;;;10.38;2.13;;;2.60;99.90;;;;;;10337271;28;20140;-62
2022/02/26 23:13:46;;;;;;;6.65;1.95;;;2.60;99.90;;;;;;10346530;28;20052;-62
2022/02/26 23:18:48;;;;;;;8.18;2.45;;;2.60;99.90;;;;;;10338930;28;20124;-62
2022/02/26 23:23:50;;;;;;;6.93;2.15;;;2.70;99.90;;;;;;10341176;28;20058;-62
2022/02/26 23:28:52;;;;;;;10.93;3.40;;;2.70;99.90;;;;;;10327883;28;20046;-62
2022/02/26 23:33:53;;;;;;;11.50;4.03;;;2.70;99.90;;;;;;10346548;28;20042;-62
2022/02/26 23:38:55;;;;;;;9.80;3.28;;;2.70;99.90;;;;;;10337591;28;20100;-62
2022/02/26 23:43:57;;;;;;;8.00;2.00;;;2.70;99.90;;;;;;10347457;28;20069;-62
2022/02/26 23:48:59;;;;;;;10.65;2.58;;;2.60;99.90;;;;;;10336207;28;20046;-62
2022/02/26 23:54:05;;;;;;;10.48;2.20;;;2.60;99.90;;;;;;10340398;28;20046;-62
2022/02/26 23:59:07;;;;;;;8.02;3.05;;;2.50;99.90;;;;;;10349513;28;20046;-61
